createdAt,value
2023-01-28T00:02:43.749Z,4.15
2023-01-28T00:05:30.111Z,4.18
2023-01-28T00:08:16.209Z,4.17
2023-01-28T00:11:03.592Z,4.21
2023-01-28T00:13:54.123Z,4.16
2023-01-28T00:16:40.088Z,4.23
2023-01-28T00:19:25.923Z,4.14
2023-01-28T00:22:11.578Z,4.11
2023-01-28T00:24:57.554Z,4.02
2023-01-28T00:27:43.690Z,4.13
2023-01-28T00:30:29.818Z,4.11
2023-01-28T00:33:15.716Z,4.04
2023-01-28T00:36:02.800Z,4.11
2023-01-28T00:38:52.828Z,4.08
2023-01-28T00:41:38.977Z,4.06
2023-01-28T00:44:24.808Z,4.10
2023-01-28T00:47:11.138Z,4.10
2023-01-28T00:49:57.318Z,4.18
2023-01-28T00:52:43.754Z,4.15
2023-01-28T00:55:29.960Z,4.16
2023-01-28T00:58:15.674Z,4.13
2023-01-28T01:01:14.785Z,3.98
2023-01-28T01:04:04.415Z,4.11
2023-01-28T01:06:50.568Z,4.08
2023-01-28T01:09:36.367Z,4.08
2023-01-28T01:12:22.933Z,4.08
2023-01-28T01:15:10.595Z,4.05
2023-01-28T01:17:57.153Z,4.03
2023-01-28T01:20:45.692Z,4.08
2023-01-28T01:23:31.864Z,4.09
2023-01-28T01:26:18.649Z,4.07
2023-01-28T01:29:04.516Z,4.17
2023-01-28T01:31:50.304Z,4.20
2023-01-28T01:34:36.999Z,4.18
2023-01-28T01:37:23.199Z,4.11
2023-01-28T01:40:10.544Z,4.02
2023-01-28T01:42:56.215Z,4.03
2023-01-28T01:45:42.275Z,4.04
2023-01-28T01:48:34.040Z,3.99
2023-01-28T01:51:23.177Z,4.10
2023-01-28T01:54:09.151Z,4.20
2023-01-28T01:56:55.416Z,4.21
2023-01-28T01:59:43.498Z,4.16
2023-01-28T02:02:29.442Z,4.24
2023-01-28T02:05:18.719Z,4.19
2023-01-28T02:08:23.203Z,4.23
2023-01-28T02:11:10.588Z,4.16
2023-01-28T02:13:58.537Z,4.14
2023-01-28T02:16:46.295Z,4.05
2023-01-28T02:19:48.967Z,4.11
2023-01-28T02:22:43.963Z,4.21
2023-01-28T02:25:29.983Z,4.26
2023-01-28T02:28:27.304Z,4.15
2023-01-28T02:31:25.269Z,4.13
2023-01-28T02:34:39.806Z,4.11
2023-01-28T02:37:33.480Z,4.16
2023-01-28T02:40:25.122Z,4.17
2023-01-28T02:43:11.302Z,4.28
2023-01-28T02:46:26.422Z,4.24
2023-01-28T02:49:19.027Z,3.91
2023-01-28T02:52:18.466Z,4.19
2023-01-28T02:55:13.118Z,4.18
2023-01-28T02:58:07.010Z,4.14
2023-01-28T03:01:03.787Z,4.23
2023-01-28T03:04:09.687Z,4.16
2023-01-28T03:06:58.781Z,4.16
2023-01-28T03:09:46.042Z,4.26
2023-01-28T03:12:51.587Z,4.33
2023-01-28T03:16:03.815Z,4.26
2023-01-28T03:19:10.404Z,4.20
2023-01-28T03:22:15.467Z,4.32
2023-01-28T03:25:21.064Z,4.26
2023-01-28T03:28:30.230Z,4.26
2023-01-28T03:31:39.397Z,4.31
2023-01-28T03:34:44.708Z,4.19
2023-01-28T03:37:32.116Z,4.23
2023-01-28T03:40:55.135Z,4.29
2023-01-28T03:43:41.877Z,4.20
2023-01-28T03:46:27.806Z,4.19
2023-01-28T03:49:16.092Z,4.23
2023-01-28T03:52:02.509Z,4.22
2023-01-28T03:54:48.964Z,3.93
2023-01-28T03:57:35.169Z,4.21
2023-01-28T04:00:22.217Z,4.25
2023-01-28T04:03:26.921Z,4.18
2023-01-28T04:06:25.775Z,4.23
2023-01-28T04:09:11.611Z,4.27
2023-01-28T04:12:16.518Z,4.24
2023-01-28T04:15:15.864Z,4.22
2023-01-28T04:18:03.327Z,4.24
2023-01-28T04:20:50.037Z,4.18
2023-01-28T04:23:37.677Z,4.26
2023-01-28T04:26:23.951Z,4.26
2023-01-28T04:29:09.824Z,4.10
2023-01-28T04:31:56.557Z,4.21
2023-01-28T04:34:54.448Z,4.20
2023-01-28T04:37:53.368Z,4.22
2023-01-28T04:41:00.451Z,4.18
2023-01-28T04:43:50.489Z,4.28
2023-01-28T04:47:14.682Z,4.30
2023-01-28T04:50:20.573Z,4.32
2023-01-28T04:53:32.670Z,4.26
2023-01-28T04:56:24.544Z,4.26
2023-01-28T04:59:10.471Z,4.31
2023-01-28T05:01:57.358Z,4.30
2023-01-28T05:04:43.696Z,4.31
2023-01-28T05:07:38.505Z,4.27
2023-01-28T05:10:25.140Z,4.37
2023-01-28T05:13:12.863Z,4.27
2023-01-28T05:15:58.907Z,4.32
2023-01-28T05:18:48.003Z,4.27
2023-01-28T05:21:36.105Z,4.28
2023-01-28T05:24:25.726Z,4.27
2023-01-28T05:27:12.508Z,4.29
2023-01-28T05:29:58.724Z,4.31
2023-01-28T05:32:44.579Z,4.29
2023-01-28T05:35:32.469Z,4.30
2023-01-28T05:38:18.670Z,4.31
2023-01-28T05:41:04.659Z,4.32
2023-01-28T05:43:51.706Z,4.34
2023-01-28T05:46:50.158Z,4.35
2023-01-28T05:50:02.265Z,4.34
2023-01-28T05:52:56.789Z,4.35
2023-01-28T05:55:49.847Z,4.38
2023-01-28T05:58:36.940Z,4.40
2023-01-28T06:01:23.179Z,4.41
2023-01-28T06:04:13.265Z,4.38
2023-01-28T06:06:59.032Z,4.39
2023-01-28T06:09:47.650Z,4.38
2023-01-28T06:12:35.781Z,4.42
2023-01-28T06:15:41.723Z,4.44
2023-01-28T06:19:03.091Z,4.46
2023-01-28T06:21:49.155Z,4.40
2023-01-28T06:24:36.707Z,4.50
2023-01-28T06:27:22.851Z,4.52
2023-01-28T06:30:09.149Z,4.53
2023-01-28T06:32:56.106Z,4.56
2023-01-28T06:35:42.952Z,4.48
2023-01-28T06:38:28.984Z,4.52
2023-01-28T06:41:14.869Z,4.54
2023-01-28T06:44:00.999Z,4.53
2023-01-28T06:46:46.667Z,4.39
2023-01-28T06:49:32.528Z,4.51
2023-01-28T06:52:18.479Z,4.45
2023-01-28T06:55:04.757Z,4.54
2023-01-28T06:57:50.811Z,4.54
2023-01-28T07:00:37.501Z,4.54
2023-01-28T07:03:23.447Z,4.56
2023-01-28T07:06:09.412Z,4.51
2023-01-28T07:08:55.484Z,4.46
2023-01-28T07:11:41.399Z,4.51
2023-01-28T07:14:27.169Z,4.53
2023-01-28T07:17:13.118Z,4.53
2023-01-28T07:19:58.847Z,4.59
2023-01-28T07:22:45.154Z,4.61
2023-01-28T07:25:31.748Z,4.64
2023-01-28T07:28:21.536Z,4.68
2023-01-28T07:31:07.349Z,4.72
2023-01-28T07:33:53.115Z,4.74
2023-01-28T07:36:39.032Z,4.67
2023-01-28T07:39:24.951Z,4.63
2023-01-28T07:42:10.872Z,4.72
2023-01-28T07:45:05.236Z,4.65
2023-01-28T07:47:58.852Z,4.71
2023-01-28T07:50:45.605Z,4.79
2023-01-28T07:53:31.731Z,4.76
2023-01-28T07:56:18.016Z,4.80
2023-01-28T07:59:04.452Z,4.84
2023-01-28T08:01:50.269Z,4.83
2023-01-28T08:04:36.249Z,4.75
2023-01-28T08:07:22.071Z,4.97
2023-01-28T08:10:08.534Z,4.94
2023-01-28T08:12:56.996Z,4.90
2023-01-28T08:15:43.298Z,4.86
2023-01-28T08:18:29.307Z,4.77
2023-01-28T08:21:15.307Z,4.85
2023-01-28T08:24:01.322Z,4.81
2023-01-28T08:26:48.600Z,4.86
2023-01-28T08:29:34.694Z,4.87
2023-01-28T08:32:20.996Z,4.78
2023-01-28T08:35:07.862Z,4.81
2023-01-28T08:37:54.279Z,4.80
2023-01-28T08:40:40.415Z,4.82
2023-01-28T08:43:26.364Z,4.81
2023-01-28T08:46:12.412Z,4.84
2023-01-28T08:48:58.231Z,4.74
2023-01-28T08:51:44.297Z,4.83
2023-01-28T08:54:30.265Z,4.94
2023-01-28T08:57:15.965Z,4.83
2023-01-28T09:00:01.910Z,4.79
2023-01-28T09:02:47.967Z,4.75
2023-01-28T09:05:35.322Z,4.81
2023-01-28T09:08:22.406Z,4.91
2023-01-28T09:11:09.842Z,4.92
2023-01-28T09:13:57.958Z,4.88
2023-01-28T09:16:43.954Z,4.87
2023-01-28T09:19:29.924Z,4.85
2023-01-28T09:22:16.033Z,4.99
2023-01-28T09:25:02.242Z,4.90
2023-01-28T09:27:48.165Z,5.02
2023-01-28T09:30:37.316Z,4.95
2023-01-28T09:33:23.806Z,4.97
2023-01-28T09:36:11.287Z,4.99
2023-01-28T09:38:56.894Z,5.01
2023-01-28T09:41:53.888Z,5.05
2023-01-28T09:44:49.517Z,5.12
2023-01-28T09:47:44.187Z,5.08
2023-01-28T09:50:38.747Z,5.20
2023-01-28T09:53:29.661Z,5.17
2023-01-28T09:56:25.556Z,5.21
2023-01-28T09:59:18.682Z,5.21
2023-01-28T10:02:23.578Z,5.22
2023-01-28T10:05:41.022Z,5.29
2023-01-28T10:08:43.476Z,5.47
2023-01-28T10:11:44.660Z,5.36
2023-01-28T10:15:09.768Z,5.32
2023-01-28T10:18:16.182Z,5.37
2023-01-28T10:21:28.845Z,5.39
2023-01-28T10:24:26.104Z,5.43
2023-01-28T10:27:18.092Z,5.38
2023-01-28T10:30:17.485Z,5.33
2023-01-28T10:33:17.115Z,5.43
2023-01-28T10:36:03.553Z,5.45
2023-01-28T10:38:49.379Z,5.49
2023-01-28T10:41:38.238Z,5.46
2023-01-28T10:44:41.298Z,5.39
2023-01-28T10:47:38.536Z,5.42
2023-01-28T10:50:26.935Z,5.59
2023-01-28T10:53:12.997Z,5.50
2023-01-28T10:56:00.434Z,5.58
2023-01-28T10:59:04.888Z,5.49
2023-01-28T11:01:57.625Z,5.60
2023-01-28T11:04:43.949Z,5.67
2023-01-28T11:07:30.253Z,5.75
2023-01-28T11:10:37.034Z,5.59
2023-01-28T11:13:25.248Z,5.78
2023-01-28T11:16:18.577Z,5.74
2023-01-28T11:19:07.818Z,5.79
2023-01-28T11:21:55.897Z,5.80
2023-01-28T11:24:42.799Z,5.84
2023-01-28T11:27:31.117Z,5.77
2023-01-28T11:30:27.931Z,5.91
2023-01-28T11:33:23.331Z,5.84
2023-01-28T11:36:23.878Z,5.94
2023-01-28T11:39:19.221Z,5.92
2023-01-28T11:42:21.693Z,6.00
2023-01-28T11:45:20.545Z,5.98
2023-01-28T11:48:09.410Z,6.04
2023-01-28T11:51:25.263Z,6.05
2023-01-28T11:54:17.282Z,6.08
2023-01-28T11:57:22.731Z,5.96
2023-01-28T12:00:42.585Z,5.99
2023-01-28T12:04:08.326Z,6.02
2023-01-28T12:07:19.741Z,6.00
2023-01-28T12:10:20.411Z,6.07
2023-01-28T12:13:09.389Z,5.97
2023-01-28T12:16:17.988Z,5.96
2023-01-28T12:19:36.440Z,5.99
2023-01-28T12:22:29.570Z,6.09
2023-01-28T12:25:23.660Z,6.08
2023-01-28T12:28:12.795Z,6.06
2023-01-28T12:31:14.651Z,6.08
2023-01-28T12:34:08.234Z,6.01
2023-01-28T12:37:15.807Z,6.26
2023-01-28T12:40:15.593Z,6.16
2023-01-28T12:43:04.542Z,6.18
2023-01-28T12:46:10.706Z,6.19
2023-01-28T12:49:20.754Z,6.18
2023-01-28T12:52:23.380Z,6.04
2023-01-28T12:55:21.469Z,6.14
2023-01-28T12:58:18.390Z,6.16
2023-01-28T13:01:09.652Z,6.14
2023-01-28T13:04:08.264Z,6.04
2023-01-28T13:06:59.425Z,6.11
2023-01-28T13:09:54.468Z,6.25
2023-01-28T13:16:53.629Z,11.12
2023-01-28T13:19:41.085Z,13.57
2023-01-28T14:43:45.444Z,23.27
2023-01-28T14:46:42.640Z,21.52
2023-01-28T14:49:52.929Z,19.13
2023-01-28T14:53:00.510Z,17.34
